Time;durP1;ratioP1;P1;durP2;ratioP2;P2;SDS_P1;SDS_P2;PMS_P1;PMS_P2;Temp;Humidity;BMP_temperature;BMP_pressure;BME280_temperature;BME280_humidity;BME280_pressure;Samples;Min_cycle;Max_cycle;Signal;HPM_P1;HPM_P2
2023/08/06 00:02:15;;;;;;;;;;;;;;;14.54;100.00;100339.50;5039683;28;1146;-72
2023/08/06 00:04:40;;;;;;;;;;;;;;;14.53;100.00;100339.69;5036651;28;1053;-72
2023/08/06 00:07:05;;;;;;;;;;;;;;;14.53;100.00;100339.69;5044651;28;1930;-72
2023/08/06 00:09:30;;;;;;;;;;;;;;;14.52;100.00;100338.06;5031912;28;1219;-73
2023/08/06 00:11:55;;;;;;;;;;;;;;;14.52;100.00;100336.25;5033540;28;1083;-72
2023/08/06 00:14:21;;;;;;;;;;;;;;;14.55;100.00;100337.72;5033215;28;1001;-73
2023/08/06 00:16:46;;;;;;;;;;;;;;;14.56;100.00;100340.16;5033732;28;1095;-71
2023/08/06 00:19:11;;;;;;;;;;;;;;;14.58;100.00;100337.41;5029209;28;1061;-72
2023/08/06 00:21:36;;;;;;;;;;;;;;;14.59;100.00;100334.63;5037505;28;1416;-73
2023/08/06 00:24:01;;;;;;;;;;;;;;;14.62;100.00;100328.25;5042271;28;1075;-72
2023/08/06 00:26:26;;;;;;;;;;;;;;;14.60;100.00;100325.00;5037663;28;1108;-72
2023/08/06 00:28:52;;;;;;;;;;;;;;;14.59;100.00;100328.59;5041000;28;1973;-72
2023/08/06 00:31:17;;;;;;;;;;;;;;;14.59;100.00;100324.19;5040181;28;1134;-72
2023/08/06 00:33:42;;;;;;;;;;;;;;;14.61;100.00;100326.63;5038967;28;1150;-71
2023/08/06 00:36:07;;;;;;;;;;;;;;;14.61;100.00;100331.84;5038941;28;1142;-72
2023/08/06 00:38:32;;;;;;;;;;;;;;;14.60;100.00;100330.22;5037322;28;1171;-73
2023/08/06 00:40:57;;;;;;;;;;;;;;;14.60;100.00;100320.59;5039739;28;1181;-71
2023/08/06 00:43:23;;;;;;;;;;;;;;;14.62;100.00;100328.25;5039937;28;1114;-72
2023/08/06 00:45:48;;;;;;;;;;;;;;;14.65;100.00;100327.13;5041670;28;1169;-72
2023/08/06 00:48:13;;;;;;;;;;;;;;;14.66;100.00;100324.34;5044058;28;1898;-72
2023/08/06 00:50:39;;;;;;;;;;;;;;;14.65;100.00;100327.13;5043197;28;1088;-72
2023/08/06 00:53:04;;;;;;;;;;;;;;;14.61;100.00;100322.22;5041543;28;1049;-71
2023/08/06 00:55:30;;;;;;;;;;;;;;;14.62;100.00;100328.25;5040879;28;1130;-73
2023/08/06 00:57:56;;;;;;;;;;;;;;;14.63;100.00;100319.47;5042713;28;1137;-71
2023/08/06 01:00:21;;;;;;;;;;;;;;;14.63;100.00;100329.91;5039740;28;1251;-71
2023/08/06 01:02:48;;;;;;;;;;;;;;;14.62;100.00;100328.25;5039875;28;1062;-72
2023/08/06 01:05:13;;;;;;;;;;;;;;;14.61;100.00;100326.63;5039645;28;964;-73
2023/08/06 01:08:11;;;;;;;;;;;;;;;14.59;100.00;100325.97;5037114;28;1890;-73
2023/08/06 01:10:46;;;;;;;;;;;;;;;14.57;100.00;100320.94;5000028;28;1355;-72
2023/08/06 01:13:31;;;;;;;;;;;;;;;14.56;100.00;100324.50;5041736;28;1121;-72
2023/08/06 01:15:59;;;;;;;;;;;;;;;14.57;100.00;100314.91;5037421;28;1397;-72
2023/08/06 01:18:24;;;;;;;;;;;;;;;14.56;100.00;100313.25;5040664;28;1096;-72
2023/08/06 01:20:52;;;;;;;;;;;;;;;14.59;100.00;100315.53;5037783;28;1100;-72
2023/08/06 01:23:18;;;;;;;;;;;;;;;14.59;100.00;100318.16;5037881;28;1079;-72
2023/08/06 01:25:48;;;;;;;;;;;;;;;14.57;100.00;100312.28;5043596;28;1097;-73
2023/08/06 01:28:40;;;;;;;;;;;;;;;14.57;100.00;100309.69;5044554;28;1938;-72
2023/08/06 01:31:07;;;;;;;;;;;;;;;14.56;100.00;100319.28;5041597;28;984;-73
2023/08/06 01:33:34;;;;;;;;;;;;;;;14.54;100.00;100315.22;5042922;28;1141;-72
2023/08/06 01:35:59;;;;;;;;;;;;;;;14.52;100.00;100312.78;5040242;28;1104;-72
2023/08/06 01:38:25;;;;;;;;;;;;;;;14.52;100.00;100312.78;5040263;28;1072;-73
2023/08/06 01:40:50;;;;;;;;;;;;;;;14.53;100.00;100303.16;5042186;28;998;-72
2023/08/06 01:43:15;;;;;;;;;;;;;;;14.50;100.00;100311.28;5043656;28;1012;-72
2023/08/06 01:45:40;;;;;;;;;;;;;;;14.49;100.00;100313.09;5041106;28;1362;-72
2023/08/06 01:48:06;;;;;;;;;;;;;;;14.50;100.00;100316.50;5040022;28;1894;-75
2023/08/06 01:50:31;;;;;;;;;;;;;;;14.47;100.00;100309.84;5041641;28;1478;-72
2023/08/06 01:52:56;;;;;;;;;;;;;;;14.46;100.00;100317.81;5042323;28;1084;-73
2023/08/06 01:55:21;;;;;;;;;;;;;;;14.45;100.00;100313.53;5038439;28;1100;-72
2023/08/06 01:57:46;;;;;;;;;;;;;;;14.46;100.00;100312.59;5040626;28;1271;-72
2023/08/06 02:00:12;;;;;;;;;;;;;;;14.45;100.00;100310.94;5038913;28;1164;-72
2023/08/06 02:02:37;;;;;;;;;;;;;;;14.45;100.00;100306.56;5040667;28;1123;-72
2023/08/06 02:05:02;;;;;;;;;;;;;;;14.46;100.00;100307.38;5043528;28;1078;-72
2023/08/06 02:07:27;;;;;;;;;;;;;;;14.47;100.00;100311.63;5038188;28;1898;-72
2023/08/06 02:09:53;;;;;;;;;;;;;;;14.46;100.00;100307.38;5046155;28;1150;-74
2023/08/06 02:12:18;;;;;;;;;;;;;;;14.46;100.00;100302.16;5041904;28;1069;-73
2023/08/06 02:14:43;;;;;;;;;;;;;;;14.45;100.00;100310.94;5039451;28;1337;-73
2023/08/06 02:17:08;;;;;;;;;;;;;;;14.41;100.00;100310.47;5046671;28;1176;-72
2023/08/06 02:19:33;;;;;;;;;;;;;;;14.44;100.00;100309.31;5040832;28;1077;-73
2023/08/06 02:21:58;;;;;;;;;;;;;;;14.44;100.00;100314.53;5040333;28;1094;-72
2023/08/06 02:24:24;;;;;;;;;;;;;;;14.43;100.00;100307.69;5040177;28;989;-72
2023/08/06 02:26:50;;;;;;;;;;;;;;;14.42;100.00;100306.88;5039193;28;1383;-72
2023/08/06 02:29:16;;;;;;;;;;;;;;;14.41;100.00;100307.84;5039893;28;1898;-71
2023/08/06 02:31:41;;;;;;;;;;;;;;;14.43;100.00;100310.28;5041616;28;1151;-72
2023/08/06 02:34:06;;;;;;;;;;;;;;;14.41;100.00;100307.84;5037028;28;1153;-72
2023/08/06 02:36:31;;;;;;;;;;;;;;;14.43;100.00;100302.47;5039586;28;1091;-73
2023/08/06 02:38:57;;;;;;;;;;;;;;;14.43;100.00;100292.84;5035979;28;1073;-73
2023/08/06 02:41:22;;;;;;;;;;;;;;;14.44;100.00;100299.69;5036265;28;1512;-72
2023/08/06 02:43:47;;;;;;;;;;;;;;;14.43;100.00;100299.84;5039696;28;1082;-72
2023/08/06 02:46:12;;;;;;;;;;;;;;;14.45;100.00;100295.28;5041206;28;1175;-73
2023/08/06 02:48:37;;;;;;;;;;;;;;;14.43;100.00;100297.25;5038870;28;1902;-72
2023/08/06 02:51:02;;;;;;;;;;;;;;;14.44;100.00;100288.44;5042950;28;1006;-73
2023/08/06 02:53:28;;;;;;;;;;;;;;;14.45;100.00;100290.06;5036279;28;1158;-72
2023/08/06 02:55:54;;;;;;;;;;;;;;;14.46;100.00;100291.72;5035734;28;1078;-73
2023/08/06 02:58:22;;;;;;;;;;;;;;;14.47;100.00;100288.16;5035689;28;1067;-73
2023/08/06 03:00:59;;;;;;;;;;;;;;;14.47;100.00;100288.16;5035971;28;1333;-72
2023/08/06 03:03:24;;;;;;;;;;;;;;;14.47;100.00;100288.16;5036565;28;1096;-74
2023/08/06 03:05:53;;;;;;;;;;;;;;;14.47;100.00;100288.16;5036380;28;1133;-74
2023/08/06 03:08:22;;;;;;;;;;;;;;;14.49;100.00;100292.22;5039272;28;1968;-72
2023/08/06 03:10:47;;;;;;;;;;;;;;;14.51;100.00;100286.84;5041306;28;1071;-72
2023/08/06 03:13:12;;;;;;;;;;;;;;;14.52;100.00;100285.88;5039575;28;978;-72
2023/08/06 03:15:37;;;;;;;;;;;;;;;14.53;100.00;100293.53;5047085;28;1063;-73
2023/08/06 03:18:02;;;;;;;;;;;;;;;14.55;100.00;100293.34;5042031;28;1145;-73
2023/08/06 03:20:28;;;;;;;;;;;;;;;14.56;100.00;100292.38;5040636;28;1081;-73
2023/08/06 03:22:53;;;;;;;;;;;;;;;14.55;100.00;100290.75;5039183;28;1184;-72
2023/08/06 03:25:18;;;;;;;;;;;;;;;14.55;100.00;100295.97;5046223;28;1149;-72
2023/08/06 03:27:43;;;;;;;;;;;;;;;14.56;100.00;100293.19;5040170;28;1965;-71
2023/08/06 03:30:09;;;;;;;;;;;;;;;14.55;100.00;100291.56;5036545;28;1102;-72
2023/08/06 03:32:34;;;;;;;;;;;;;;;14.54;100.00;100295.16;5039285;28;1142;-72
2023/08/06 03:34:59;;;;;;;;;;;;;;;14.55;100.00;100290.75;5041885;28;1142;-72
2023/08/06 03:37:24;;;;;;;;;;;;;;;14.56;100.00;100290.56;5039841;28;1295;-73
2023/08/06 03:39:49;;;;;;;;;;;;;;;14.55;100.00;100288.13;5040459;28;1138;-72
2023/08/06 03:42:14;;;;;;;;;;;;;;;14.53;100.00;100297.94;5041327;28;1161;-73
2023/08/06 03:44:40;;;;;;;;;;;;;;;14.54;100.00;100289.13;5040206;28;1095;-72
2023/08/06 03:47:05;;;;;;;;;;;;;;;14.53;100.00;100292.72;5033914;28;1171;-72
2023/08/06 03:49:30;;;;;;;;;;;;;;;14.54;100.00;100289.13;5039962;28;1953;-72
2023/08/06 03:51:55;;;;;;;;;;;;;;;14.55;100.00;100295.97;5033884;28;1108;-72
2023/08/06 03:54:20;;;;;;;;;;;;;;;14.54;100.00;100294.34;5037143;28;1147;-72
2023/08/06 03:56:46;;;;;;;;;;;;;;;14.55;100.00;100290.75;5034928;28;1141;-73
2023/08/06 03:59:11;;;;;;;;;;;;;;;14.55;100.00;100290.75;5034832;28;1298;-72
2023/08/06 04:01:36;;;;;;;;;;;;;;;14.55;100.00;100290.75;5034800;28;1135;-72
2023/08/06 04:04:01;;;;;;;;;;;;;;;14.57;100.00;100288.81;5035841;28;1090;-72
2023/08/06 04:06:26;;;;;;;;;;;;;;;14.55;100.00;100291.56;5038938;28;1089;-72
2023/08/06 04:08:51;;;;;;;;;;;;;;;14.55;100.00;100295.97;5040702;28;1989;-73
2023/08/06 04:11:17;;;;;;;;;;;;;;;14.57;100.00;100288.81;5043928;28;1116;-72
2023/08/06 04:13:42;;;;;;;;;;;;;;;14.56;100.00;100287.16;5038959;28;1100;-72
2023/08/06 04:16:08;;;;;;;;;;;;;;;14.56;100.00;100293.19;5040437;28;1112;-72
2023/08/06 04:18:33;;;;;;;;;;;;;;;14.56;100.00;100293.19;5038187;28;1104;-73
2023/08/06 04:20:58;;;;;;;;;;;;;;;14.58;100.00;100296.47;5038313;28;1189;-76
2023/08/06 04:23:24;;;;;;;;;;;;;;;14.57;100.00;100294.03;5038894;28;1133;-72
2023/08/06 04:25:49;;;;;;;;;;;;;;;14.57;100.00;100300.06;5040631;28;1094;-72
2023/08/06 04:28:14;;;;;;;;;;;;;;;14.57;100.00;100299.25;5041088;28;2317;-73
2023/08/06 04:30:39;;;;;;;;;;;;;;;14.57;100.00;100305.28;5040215;28;1160;-72
2023/08/06 04:33:05;;;;;;;;;;;;;;;14.59;100.00;100307.72;5044891;28;1161;-73
2023/08/06 04:35:30;;;;;;;;;;;;;;;14.57;100.00;100309.69;5044330;28;1423;-72
2023/08/06 04:37:55;;;;;;;;;;;;;;;14.57;100.00;100309.69;5037010;28;1079;-73
2023/08/06 04:40:20;;;;;;;;;;;;;;;14.59;100.00;100310.31;5037964;28;1132;-72
2023/08/06 04:42:45;;;;;;;;;;;;;;;14.61;100.00;100310.97;5036469;28;1143;-72
2023/08/06 04:45:11;;;;;;;;;;;;;;;14.61;100.00;100316.19;5038480;28;1111;-73
2023/08/06 04:47:36;;;;;;;;;;;;;;;14.62;100.00;100299.53;5038140;28;1898;-73
2023/08/06 04:50:01;;;;;;;;;;;;;;;14.63;100.00;100314.25;5034506;28;1336;-72
2023/08/06 04:52:28;;;;;;;;;;;;;;;14.62;100.00;100304.75;5033159;28;1127;-72
2023/08/06 04:54:53;;;;;;;;;;;;;;;14.64;100.00;100315.06;5036360;28;1375;-73
2023/08/06 04:57:18;;;;;;;;;;;;;;;14.64;100.00;100315.88;5037719;28;1210;-73
2023/08/06 04:59:43;;;;;;;;;;;;;;;14.65;100.00;100317.50;5038463;28;1071;-74
2023/08/06 05:02:09;;;;;;;;;;;;;;;14.66;100.00;100318.31;5037188;28;1185;-73
2023/08/06 05:04:34;;;;;;;;;;;;;;;14.67;100.00;100314.72;5040760;28;1122;-74
2023/08/06 05:07:00;;;;;;;;;;;;;;;14.68;100.00;100319.78;5037497;28;1109;-72
2023/08/06 05:09:25;;;;;;;;;;;;;;;14.69;100.00;100326.63;5040917;28;1948;-72
2023/08/06 05:11:50;;;;;;;;;;;;;;;14.68;100.00;100327.63;5038669;28;1028;-74
2023/08/06 05:14:15;;;;;;;;;;;;;;;14.70;100.00;100330.88;5037718;28;1183;-73
2023/08/06 05:16:41;;;;;;;;;;;;;;;14.69;100.00;100329.25;5038092;28;1186;-73
2023/08/06 05:19:06;;;;;;;;;;;;;;;14.67;100.00;100325.97;5037492;28;1169;-72
2023/08/06 05:21:31;;;;;;;;;;;;;;;14.67;100.00;100333.78;5035934;28;1240;-73
2023/08/06 05:23:56;;;;;;;;;;;;;;;14.67;100.00;100333.78;5034157;28;1094;-73
2023/08/06 05:26:21;;;;;;;;;;;;;;;14.69;100.00;100334.47;5038853;28;1188;-72
2023/08/06 05:28:47;;;;;;;;;;;;;;;14.72;100.00;100339.34;5036336;28;1951;-72
2023/08/06 05:31:12;;;;;;;;;;;;;;;14.70;100.00;100343.94;5040441;28;1176;-72
2023/08/06 05:33:37;;;;;;;;;;;;;;;14.69;100.00;100350.13;5036269;28;1081;-74
2023/08/06 05:36:03;;;;;;;;;;;;;;;14.69;100.00;100344.91;5042500;28;930;-72
2023/08/06 05:38:29;;;;;;;;;;;;;;;14.71;100.00;100348.16;5041020;28;1187;-73
2023/08/06 05:40:55;;;;;;;;;;;;;;;14.74;100.00;100353.06;5038303;28;1097;-73
2023/08/06 05:43:20;;;;;;;;;;;;;;;14.72;100.00;100365.44;5036157;28;1088;-72
2023/08/06 05:45:48;;;;;;;;;;;;;;;14.75;100.00;100364.31;5038667;28;1041;-73
2023/08/06 05:48:13;;;;;;;;;;;;;;;14.75;100.00;100365.13;5040532;28;1902;-72
2023/08/06 05:50:38;;;;;;;;;;;;;;;14.75;100.00;100364.31;5033230;28;1516;-73
2023/08/06 05:53:05;;;;;;;;;;;;;;;14.78;100.00;100370.00;5037439;28;1196;-72
2023/08/06 05:55:32;;;;;;;;;;;;;;;14.80;100.00;100369.88;5046297;28;1083;-71
2023/08/06 05:57:57;;;;;;;;;;;;;;;14.79;100.00;100371.66;5040889;28;1088;-72
2023/08/06 06:00:22;;;;;;;;;;;;;;;14.78;100.00;100380.47;5040066;28;976;-72
2023/08/06 06:02:47;;;;;;;;;;;;;;;14.79;100.00;100376.88;5043445;28;1119;-72
2023/08/06 06:05:13;;;;;;;;;;;;;;;14.81;100.00;100380.16;5045878;28;1106;-73
2023/08/06 06:07:38;;;;;;;;;;;;;;;14.80;100.00;100378.53;5039010;28;1918;-72
2023/08/06 06:10:03;;;;;;;;;;;;;;;14.81;100.00;100385.38;5037623;28;1482;-72
2023/08/06 06:12:29;;;;;;;;;;;;;;;14.83;100.00;100393.84;5042395;28;1074;-72
2023/08/06 06:14:54;;;;;;;;;;;;;;;14.82;100.00;100394.00;5038420;28;1076;-72
2023/08/06 06:17:19;;;;;;;;;;;;;;;14.80;100.00;100398.59;5042125;28;1066;-72
2023/08/06 06:19:44;;;;;;;;;;;;;;;14.80;100.00;100404.63;5038310;28;1080;-74
2023/08/06 06:22:09;;;;;;;;;;;;;;;14.79;100.00;100408.19;5037713;28;1085;-72
2023/08/06 06:24:34;;;;;;;;;;;;;;;14.81;100.00;100414.09;5040158;28;1085;-72
2023/08/06 06:27:00;;;;;;;;;;;;;;;14.83;100.00;100408.69;5040387;28;1043;-74
2023/08/06 06:29:25;;;;;;;;;;;;;;;14.82;100.00;100413.09;5042192;28;1984;-72
2023/08/06 06:31:50;;;;;;;;;;;;;;;14.80;100.00;100417.69;5033363;28;1045;-72
2023/08/06 06:34:15;;;;;;;;;;;;;;;14.82;100.00;100422.72;5043532;28;1130;-73
2023/08/06 06:36:40;;;;;;;;;;;;;;;14.82;100.00;100423.53;5031734;28;1231;-72
2023/08/06 06:39:06;;;;;;;;;;;;;;;14.83;100.00;100425.19;5035043;28;1142;-74
2023/08/06 06:41:32;;;;;;;;;;;;;;;14.84;100.00;100432.03;5030246;28;1074;-72
2023/08/06 06:43:57;;;;;;;;;;;;;;;14.84;100.00;100432.03;5030238;28;1070;-72
2023/08/06 06:46:23;;;;;;;;;;;;;;;14.86;100.00;100430.09;5033997;28;1143;-72
2023/08/06 06:48:48;;;;;;;;;;;;;;;14.87;100.00;100431.72;5031308;28;1977;-73
2023/08/06 06:51:13;;;;;;;;;;;;;;;14.85;100.00;100431.06;5041828;28;1190;-73
2023/08/06 06:53:38;;;;;;;;;;;;;;;14.83;100.00;100430.41;5034851;28;1099;-74
2023/08/06 06:56:04;;;;;;;;;;;;;;;14.86;100.00;100429.28;5046340;28;1198;-72
2023/08/06 06:58:30;;;;;;;;;;;;;;;14.84;100.00;100431.22;5042857;28;1123;-73
2023/08/06 07:00:55;;;;;;;;;;;;;;;14.84;100.00;100436.44;5046936;28;1154;-73
2023/08/06 07:03:20;;;;;;;;;;;;;;;14.84;100.00;100442.47;5047268;28;1105;-73
2023/08/06 07:05:46;;;;;;;;;;;;;;;14.85;100.00;100441.50;5042176;28;1075;-73
2023/08/06 07:08:11;;;;;;;;;;;;;;;14.85;100.00;100438.91;5040440;28;1969;-72
2023/08/06 07:10:36;;;;;;;;;;;;;;;14.83;100.00;100446.06;5045584;28;1099;-72
2023/08/06 07:13:02;;;;;;;;;;;;;;;14.82;100.00;100441.81;5044757;28;1060;-72
2023/08/06 07:15:27;;;;;;;;;;;;;;;14.80;100.00;100441.19;5037199;28;1132;-72
2023/08/06 07:17:52;;;;;;;;;;;;;;;14.82;100.00;100447.03;5041778;28;1175;-72
2023/08/06 07:20:17;;;;;;;;;;;;;;;14.83;100.00;100451.28;5038393;28;1101;-73
2023/08/06 07:22:43;;;;;;;;;;;;;;;14.83;100.00;100448.69;5042661;28;1074;-72
2023/08/06 07:25:08;;;;;;;;;;;;;;;14.84;100.00;100447.69;5041703;28;1098;-73
2023/08/06 07:27:33;;;;;;;;;;;;;;;14.84;100.00;100458.13;5039512;28;1906;-73
2023/08/06 07:29:59;;;;;;;;;;;;;;;14.82;100.00;100460.09;5036002;28;1084;-72
2023/08/06 07:32:24;;;;;;;;;;;;;;;14.81;100.00;100463.69;5033906;28;1136;-73
2023/08/06 07:34:49;;;;;;;;;;;;;;;14.79;100.00;100465.63;5035399;28;1062;-73
2023/08/06 07:37:15;;;;;;;;;;;;;;;14.81;100.00;100468.91;5034232;28;1073;-73
2023/08/06 07:39:41;;;;;;;;;;;;;;;14.76;100.00;100468.56;5030960;28;1062;-72
2023/08/06 07:42:07;;;;;;;;;;;;;;;14.73;100.00;100466.28;5028874;28;1344;-73
2023/08/06 07:44:32;;;;;;;;;;;;;;;14.72;100.00;100475.09;5035596;28;1078;-72
2023/08/06 07:46:57;;;;;;;;;;;;;;;14.70;100.00;100469.22;5036881;28;1122;-72
2023/08/06 07:49:22;;;;;;;;;;;;;;;14.69;100.00;100475.44;5030088;28;1964;-73
2023/08/06 07:51:47;;;;;;;;;;;;;;;14.66;100.00;100475.72;5037403;28;1277;-73
2023/08/06 07:54:13;;;;;;;;;;;;;;;14.66;100.00;100480.94;5027988;28;1314;-72
2023/08/06 07:56:38;;;;;;;;;;;;;;;14.65;100.00;100479.31;5034807;28;1280;-72
2023/08/06 07:59:03;;;;;;;;;;;;;;;14.65;100.00;100481.13;5048434;28;1135;-73
2023/08/06 08:01:28;;;;;;;;;;;;;;;14.59;100.00;100486.00;5047814;28;1151;-72
2023/08/06 08:03:53;;;;;;;;;;;;;;;14.53;100.00;100485.81;5041422;28;1187;-72
2023/08/06 08:06:19;;;;;;;;;;;;;;;14.49;100.00;100479.28;5036891;28;1252;-72
2023/08/06 08:08:44;;;;;;;;;;;;;;;14.50;100.00;100486.13;5036755;28;1989;-73
2023/08/06 08:11:09;;;;;;;;;;;;;;;14.50;100.00;100491.34;5039547;28;1027;-73
2023/08/06 08:13:34;;;;;;;;;;;;;;;14.48;100.00;100493.31;5040087;28;1114;-74
2023/08/06 08:16:00;;;;;;;;;;;;;;;14.46;100.00;100490.03;5037354;28;1112;-73
2023/08/06 08:18:25;;;;;;;;;;;;;;;14.32;100.00;100494.84;5039398;28;1153;-74
2023/08/06 08:20:50;;;;;;;;;;;;;;;14.12;100.00;100498.69;5043803;28;1055;-74
2023/08/06 08:23:15;;;;;;;;;;;;;;;14.02;100.00;100503.19;5037069;28;1142;-73
2023/08/06 08:25:41;;;;;;;;;;;;;;;13.91;100.00;100501.66;5041650;28;1160;-74
2023/08/06 08:28:06;;;;;;;;;;;;;;;13.91;100.00;100500.84;5035106;28;1971;-74
2023/08/06 08:30:32;;;;;;;;;;;;;;;13.88;100.00;100508.97;5036380;28;1223;-75
2023/08/06 08:32:57;;;;;;;;;;;;;;;13.88;100.00;100511.56;5036634;28;1070;-74
2023/08/06 08:35:22;;;;;;;;;;;;;;;13.86;100.00;100508.31;5031301;28;1134;-74
2023/08/06 08:37:47;;;;;;;;;;;;;;;13.79;100.00;100511.53;5037380;28;1207;-73
2023/08/06 08:40:14;;;;;;;;;;;;;;;13.79;100.00;100523.75;5035883;28;1072;-74
2023/08/06 08:42:39;;;;;;;;;;;;;;;13.71;100.00;100511.50;5032825;28;1156;-73
2023/08/06 08:45:06;;;;;;;;;;;;;;;13.60;100.00;100529.19;5033844;28;1106;-73
2023/08/06 08:47:31;;;;;;;;;;;;;;;13.54;100.00;100531.41;5034241;28;1959;-74
2023/08/06 08:49:57;;;;;;;;;;;;;;;13.50;100.00;100542.28;5033996;28;1137;-74
2023/08/06 08:52:23;;;;;;;;;;;;;;;13.45;100.00;100536.69;5037226;28;1092;-74
2023/08/06 08:54:52;;;;;;;;;;;;;;;13.45;100.00;100534.91;5036860;28;1105;-74
2023/08/06 08:57:18;;;;;;;;;;;;;;;13.40;100.00;100523.31;5032567;28;1008;-74
2023/08/06 08:59:43;;;;;;;;;;;;;;;13.43;100.00;100533.44;5034250;28;1105;-74
2023/08/06 09:02:10;;;;;;;;;;;;;;;13.43;100.00;100533.44;5045182;28;1145;-74
2023/08/06 09:04:36;;;;;;;;;;;;;;;13.46;100.00;100538.34;5043056;28;1154;-74
2023/08/06 09:07:02;;;;;;;;;;;;;;;13.48;100.00;100541.63;5034409;28;1507;-73
2023/08/06 09:09:31;;;;;;;;;;;;;;;13.47;100.00;100545.19;5049459;28;1902;-75
2023/08/06 09:11:59;;;;;;;;;;;;;;;13.55;100.00;100547.88;5047669;28;1095;-74
2023/08/06 09:14:24;;;;;;;;;;;;;;;13.55;100.00;100553.06;5048530;28;1218;-73
2023/08/06 09:16:51;;;;;;;;;;;;;;;13.57;100.00;100558.94;5040160;28;1415;-73
2023/08/06 09:19:17;;;;;;;;;;;;;;;13.57;100.00;100561.56;5040816;28;1111;-73
2023/08/06 09:21:42;;;;;;;;;;;;;;;13.63;100.00;100571.38;5047985;28;1098;-73
2023/08/06 09:24:08;;;;;;;;;;;;;;;13.58;100.00;100568.41;5045256;28;1163;-74
2023/08/06 09:26:34;;;;;;;;;;;;;;;13.61;100.00;100578.53;5037557;28;1156;-73
2023/08/06 09:28:59;;;;;;;;;;;;;;;13.62;100.00;100574.13;5040411;28;1957;-74
2023/08/06 09:31:24;;;;;;;;;;;;;;;13.65;100.00;100579.88;5046474;28;1161;-74
2023/08/06 09:33:49;;;;;;;;;;;;;;;13.66;100.00;100586.72;5038105;28;1125;-75
2023/08/06 09:36:15;;;;;;;;;;;;;;;13.76;100.00;100587.47;5038848;28;1087;-74
2023/08/06 09:38:40;;;;;;;;;;;;;;;13.82;100.00;100586.84;5039731;28;1022;-75
2023/08/06 09:41:05;;;;;;;;;;;;;;;13.78;100.00;100590.72;5044615;28;1295;-74
2023/08/06 09:43:38;;;;;;;;;;;;;;;13.80;100.00;100599.19;5042213;28;1102;-74
2023/08/06 09:46:10;;;;;;;;;;;;;;;13.84;100.00;100593.69;5039622;28;1064;-74
2023/08/06 09:48:35;;;;;;;;;;;;;;;13.90;100.00;100593.06;5040334;28;1969;-73
2023/08/06 09:51:02;;;;;;;;;;;;;;;14.00;100.00;100604.25;5039689;28;978;-73
2023/08/06 09:53:27;;;;;;;;;;;;;;;13.99;100.00;100602.56;5037059;28;1074;-74
2023/08/06 09:55:52;;;;;;;;;;;;;;;13.95;100.00;100606.47;5040366;28;1105;-73
2023/08/06 09:58:18;;;;;;;;;;;;;;;14.05;100.00;100622.84;5038522;28;1146;-73
2023/08/06 10:00:43;;;;;;;;;;;;;;;14.01;100.00;100626.72;5050251;28;1084;-74
2023/08/06 10:03:09;;;;;;;;;;;;;;;14.00;100.00;100619.88;5035540;28;1100;-73
2023/08/06 10:05:34;;;;;;;;;;;;;;;14.00;100.00;100625.09;5033577;28;1070;-74
2023/08/06 10:08:01;;;;;;;;;;;;;;;14.00;100.00;100625.09;5047869;28;1989;-73
2023/08/06 10:10:27;;;;;;;;;;;;;;;14.00;100.00;100625.09;5034723;28;985;-75
2023/08/06 10:12:54;;;;;;;;;;;;;;;14.00;100.00;100635.53;5048600;28;1365;-73
2023/08/06 10:15:22;;;;;;;;;;;;;;;13.99;100.00;100628.66;5046906;28;1076;-74
2023/08/06 10:17:47;;;;;;;;;;;;;;;14.02;100.00;100630.97;5040567;28;1071;-74
2023/08/06 10:20:12;;;;;;;;;;;;;;;14.05;100.00;100633.28;5045890;28;1130;-74
2023/08/06 10:22:42;;;;;;;;;;;;;;;14.06;100.00;100624.50;5037259;28;1117;-73
2023/08/06 10:25:07;;;;;;;;;;;;;;;14.06;100.00;100629.72;5041254;28;1182;-74
2023/08/06 10:27:32;;;;;;;;;;;;;;;14.08;100.00;100633.78;5042536;28;1925;-74
2023/08/06 10:30:16;;;;;;;;;;;;;;;14.16;100.00;100625.19;5044790;28;1396;-74
2023/08/06 10:32:51;;;;;;;;;;;;;;;14.12;100.00;100634.31;5039698;28;1046;-74
2023/08/06 10:35:30;;;;;;;;;;;;;;;14.14;100.00;100624.53;5040880;28;1135;-73
2023/08/06 10:37:59;;;;;;;;;;;;;;;14.13;100.00;100633.34;5036250;28;1068;-74
2023/08/06 10:40:25;;;;;;;;;;;;;;;14.14;100.00;100621.91;5043093;28;1141;-74
2023/08/06 10:42:51;;;;;;;;;;;;;;;14.15;100.00;100623.56;5040496;28;1152;-74
2023/08/06 10:45:20;;;;;;;;;;;;;;;14.18;100.00;100638.09;5038933;28;1107;-74
2023/08/06 10:47:45;;;;;;;;;;;;;;;14.16;100.00;100629.59;5038929;28;1906;-73
2023/08/06 10:50:13;;;;;;;;;;;;;;;14.17;100.00;100637.28;5040702;28;1110;-74
2023/08/06 10:52:38;;;;;;;;;;;;;;;14.17;100.00;100634.66;5041660;28;1097;-74
2023/08/06 10:55:04;;;;;;;;;;;;;;;14.30;100.00;100637.69;5036460;28;1104;-74
2023/08/06 10:57:29;;;;;;;;;;;;;;;14.19;100.00;100635.31;5043196;28;1075;-74
2023/08/06 10:59:54;;;;;;;;;;;;;;;14.29;100.00;100646.47;5044653;28;1332;-75
2023/08/06 11:02:20;;;;;;;;;;;;;;;14.19;100.00;100640.53;5039150;28;1135;-74
2023/08/06 11:04:45;;;;;;;;;;;;;;;14.22;100.00;100640.25;5038992;28;1169;-75
2023/08/06 11:07:10;;;;;;;;;;;;;;;14.23;100.00;100647.09;5034084;28;1104;-73
2023/08/06 11:09:35;;;;;;;;;;;;;;;14.22;100.00;100650.69;5038479;28;1925;-73
2023/08/06 11:12:01;;;;;;;;;;;;;;;14.19;100.00;100653.59;5036913;28;1060;-73
2023/08/06 11:14:26;;;;;;;;;;;;;;;14.22;100.00;100652.44;5029277;28;2375;-74
2023/08/06 11:16:51;;;;;;;;;;;;;;;14.20;100.00;100647.41;5027978;28;1111;-73
2023/08/06 11:19:16;;;;;;;;;;;;;;;14.29;100.00;100650.88;5037759;28;1099;-74
2023/08/06 11:21:43;;;;;;;;;;;;;;;14.21;100.00;100654.25;5036877;28;1161;-74
2023/08/06 11:24:10;;;;;;;;;;;;;;;14.26;100.00;100667.66;5031658;28;1158;-74
2023/08/06 11:26:36;;;;;;;;;;;;;;;14.24;100.00;100661.78;5043649;28;959;-74
2023/08/06 11:29:02;;;;;;;;;;;;;;;14.26;100.00;100662.44;5044593;28;1894;-74
2023/08/06 11:31:27;;;;;;;;;;;;;;;14.28;100.00;100660.50;5037070;28;1299;-74
2023/08/06 11:33:53;;;;;;;;;;;;;;;14.33;100.00;100668.66;5041201;28;1004;-75
2023/08/06 11:36:28;;;;;;;;;;;;;;;14.32;100.00;100672.25;5037771;28;924;-75
2023/08/06 11:38:53;;;;;;;;;;;;;;;14.32;100.00;100668.81;5044793;28;1343;-74
2023/08/06 11:41:18;;;;;;;;;;;;;;;14.39;100.00;100661.19;5040068;28;1082;-73
2023/08/06 11:43:45;;;;;;;;;;;;;;;14.46;100.00;100667.47;5041916;28;1231;-73
2023/08/06 11:46:11;;;;;;;;;;;;;;;14.40;100.00;100673.31;5037132;28;985;-73
2023/08/06 11:48:50;;;;;;;;;;;;;;;14.41;100.00;100680.16;5038954;28;1890;-74
2023/08/06 11:51:15;;;;;;;;;;;;;;;14.49;100.00;100677.59;5038725;28;1032;-73
2023/08/06 11:53:41;;;;;;;;;;;;;;;14.42;100.00;100676.56;5038957;28;1081;-73
2023/08/06 11:56:06;;;;;;;;;;;;;;;14.43;100.00;100676.41;5038285;28;1355;-73
2023/08/06 11:58:31;;;;;;;;;;;;;;;14.43;100.00;100678.19;5039224;28;1106;-74
2023/08/06 12:00:58;;;;;;;;;;;;;;;14.36;100.00;100685.81;5041166;28;1172;-73
2023/08/06 12:03:27;;;;;;;;;;;;;;;14.34;100.00;100685.97;5039785;28;1079;-73
2023/08/06 12:05:53;;;;;;;;;;;;;;;14.34;100.00;100688.59;5041693;28;1151;-74
2023/08/06 12:08:18;;;;;;;;;;;;;;;14.32;100.00;100689.69;5038174;28;1918;-74
2023/08/06 12:10:44;;;;;;;;;;;;;;;14.32;100.00;100698.34;5030885;28;1185;-73
2023/08/06 12:13:09;;;;;;;;;;;;;;;14.30;100.00;100689.03;5030518;28;950;-74
2023/08/06 12:15:34;;;;;;;;;;;;;;;14.38;100.00;100701.31;5035425;28;1090;-74
2023/08/06 12:18:00;;;;;;;;;;;;;;;14.35;100.00;100698.06;5027450;28;1090;-74
2023/08/06 12:20:25;;;;;;;;;;;;;;;14.31;100.00;100706.31;5042793;28;1193;-73
2023/08/06 12:22:51;;;;;;;;;;;;;;;14.30;100.00;100705.50;5035057;28;1169;-74
2023/08/06 12:25:17;;;;;;;;;;;;;;;14.30;100.00;100721.16;5035169;28;1123;-74
2023/08/06 12:27:43;;;;;;;;;;;;;;;14.30;100.00;100718.56;5046273;28;1956;-74
2023/08/06 12:30:08;;;;;;;;;;;;;;;14.31;100.00;100720.19;5040830;28;1141;-74
2023/08/06 12:32:34;;;;;;;;;;;;;;;14.30;100.00;100717.75;5039083;28;997;-74